Terminal Aerodrome Forecast
Issued by NWS Central Illinois

Home | Current Version | Previous Version | Text Only | Print | Product List | Glossary On
Versions: 1 2 3 4 5 6 7 8 9 10 11 12 13 14 15 16 17 18 19 20 21
000
FTUS43 KILX 172345
TAFSPI
TAF
KSPI 172345Z 1800/1824 17018G25KT P6SM VCSH BKN020
      TEMPO 1800/1803 SCT020 BKN040
     FM180400 18015G22KT P6SM -SHRA OVC008
     FM180600 19014G22KT 6SM SHRA VCTS OVC008CB
     FM181200 25008KT 4SM SHRA VCTS OVC008CB
     FM181700 32020G35KT 6SM -SHRA OVC010
     FM182100 32020G35KT P6SM BKN050=

USA.gov is the U.S. government's official web portal to all federal, state and local government web resources and services.